sensor_id;sensor_type;location;lat;lon;timestamp;pressure;altitude;pressure_sealevel;temperature;humidity
41467;BME280;27205;53.690;19.948;2022-12-18T00:04:58;101310.08;;;-3.59;94.77
41467;BME280;27205;53.690;19.948;2022-12-18T00:10:02;101313.23;;;-3.64;94.73
41467;BME280;27205;53.690;19.948;2022-12-18T00:15:06;101316.55;;;-3.67;94.98
41467;BME280;27205;53.690;19.948;2022-12-18T00:20:11;101320.58;;;-3.71;94.58
41467;BME280;27205;53.690;19.948;2022-12-18T00:25:14;101334.84;;;-3.80;94.35
41467;BME280;27205;53.690;19.948;2022-12-18T00:30:18;101341.28;;;-3.81;94.85
41467;BME280;27205;53.690;19.948;2022-12-18T00:35:21;101347.30;;;-3.83;94.75
41467;BME280;27205;53.690;19.948;2022-12-18T00:40:25;101349.72;;;-3.84;95.08
41467;BME280;27205;53.690;19.948;2022-12-18T00:45:30;101356.16;;;-3.80;94.67
41467;BME280;27205;53.690;19.948;2022-12-18T00:50:34;101364.19;;;-3.76;94.83
41467;BME280;27205;53.690;19.948;2022-12-18T00:55:39;101366.88;;;-3.71;94.82
41467;BME280;27205;53.690;19.948;2022-12-18T01:00:43;101372.04;;;-3.73;94.89
41467;BME280;27205;53.690;19.948;2022-12-18T01:05:46;101376.59;;;-3.78;94.56
41467;BME280;27205;53.690;19.948;2022-12-18T01:10:50;101373.58;;;-3.91;94.34
41467;BME280;27205;53.690;19.948;2022-12-18T01:15:54;101377.85;;;-4.04;94.59
41467;BME280;27205;53.690;19.948;2022-12-18T01:20:57;101377.98;;;-4.19;94.84
41467;BME280;27205;53.690;19.948;2022-12-18T01:26:10;101382.10;;;-4.30;94.63
41467;BME280;27205;53.690;19.948;2022-12-18T01:31:21;101387.94;;;-4.49;93.58
41467;BME280;27205;53.690;19.948;2022-12-18T01:36:28;101400.55;;;-4.62;94.09
41467;BME280;27205;53.690;19.948;2022-12-18T01:41:33;101410.70;;;-4.71;94.12
41467;BME280;27205;53.690;19.948;2022-12-18T01:46:55;101416.00;;;-4.84;94.12
41467;BME280;27205;53.690;19.948;2022-12-18T01:51:59;101418.09;;;-4.87;94.39
41467;BME280;27205;53.690;19.948;2022-12-18T01:57:03;101416.88;;;-4.89;94.87
41467;BME280;27205;53.690;19.948;2022-12-18T02:02:07;101415.30;;;-4.90;94.92
41467;BME280;27205;53.690;19.948;2022-12-18T02:13:01;101419.65;;;-4.79;94.62
41467;BME280;27205;53.690;19.948;2022-12-18T02:18:18;101429.77;;;-4.77;94.13
41467;BME280;27205;53.690;19.948;2022-12-18T02:29:01;101438.27;;;-4.82;94.02
41467;BME280;27205;53.690;19.948;2022-12-18T02:34:13;101449.56;;;-4.83;94.00
41467;BME280;27205;53.690;19.948;2022-12-18T02:39:19;101447.15;;;-4.89;93.88
41467;BME280;27205;53.690;19.948;2022-12-18T02:44:24;101450.06;;;-4.95;94.01
41467;BME280;27205;53.690;19.948;2022-12-18T03:00:19;101473.16;;;-4.91;94.62
41467;BME280;27205;53.690;19.948;2022-12-18T03:05:40;101483.34;;;-4.81;95.00
41467;BME280;27205;53.690;19.948;2022-12-18T03:10:56;101490.73;;;-4.81;94.83
41467;BME280;27205;53.690;19.948;2022-12-18T03:16:01;101490.31;;;-4.94;94.36
41467;BME280;27205;53.690;19.948;2022-12-18T03:21:07;101494.30;;;-5.05;94.12
41467;BME280;27205;53.690;19.948;2022-12-18T03:26:17;101499.04;;;-5.18;94.10
41467;BME280;27205;53.690;19.948;2022-12-18T03:31:23;101498.34;;;-5.22;94.20
41467;BME280;27205;53.690;19.948;2022-12-18T03:36:28;101497.48;;;-5.16;94.54
41467;BME280;27205;53.690;19.948;2022-12-18T03:41:42;101504.16;;;-5.12;94.99
41467;BME280;27205;53.690;19.948;2022-12-18T03:46:53;101500.92;;;-5.12;93.86
41467;BME280;27205;53.690;19.948;2022-12-18T03:52:04;101510.03;;;-5.26;93.88
41467;BME280;27205;53.690;19.948;2022-12-18T03:57:13;101521.01;;;-5.23;93.80
41467;BME280;27205;53.690;19.948;2022-12-18T04:02:18;101522.73;;;-5.18;93.81
41467;BME280;27205;53.690;19.948;2022-12-18T04:07:22;101524.19;;;-5.14;94.11
41467;BME280;27205;53.690;19.948;2022-12-18T04:12:28;101525.78;;;-5.11;94.46
41467;BME280;27205;53.690;19.948;2022-12-18T04:17:32;101527.83;;;-5.03;94.68
41467;BME280;27205;53.690;19.948;2022-12-18T04:22:35;101539.75;;;-5.01;94.18
41467;BME280;27205;53.690;19.948;2022-12-18T04:27:39;101544.62;;;-4.95;94.96
41467;BME280;27205;53.690;19.948;2022-12-18T04:32:42;101545.91;;;-4.83;94.47
41467;BME280;27205;53.690;19.948;2022-12-18T04:37:53;101549.45;;;-4.77;94.58
41467;BME280;27205;53.690;19.948;2022-12-18T04:42:57;101562.16;;;-4.80;94.44
41467;BME280;27205;53.690;19.948;2022-12-18T04:48:01;101570.10;;;-4.79;94.83
41467;BME280;27205;53.690;19.948;2022-12-18T04:53:05;101578.41;;;-4.67;94.68
41467;BME280;27205;53.690;19.948;2022-12-18T04:58:09;101580.70;;;-4.54;95.16
41467;BME280;27205;53.690;19.948;2022-12-18T05:03:12;101580.05;;;-4.45;94.55
41467;BME280;27205;53.690;19.948;2022-12-18T05:08:15;101581.70;;;-4.39;95.06
41467;BME280;27205;53.690;19.948;2022-12-18T05:13:19;101587.84;;;-4.35;94.91
41467;BME280;27205;53.690;19.948;2022-12-18T05:18:24;101587.23;;;-4.31;95.18
41467;BME280;27205;53.690;19.948;2022-12-18T05:23:27;101597.92;;;-4.18;95.22
41467;BME280;27205;53.690;19.948;2022-12-18T05:28:33;101603.55;;;-4.02;95.22
41467;BME280;27205;53.690;19.948;2022-12-18T05:33:37;101612.05;;;-3.89;95.40
41467;BME280;27205;53.690;19.948;2022-12-18T05:38:41;101618.57;;;-3.75;95.29
41467;BME280;27205;53.690;19.948;2022-12-18T05:43:44;101633.39;;;-3.73;95.68
41467;BME280;27205;53.690;19.948;2022-12-18T05:48:48;101634.56;;;-3.66;95.96
41467;BME280;27205;53.690;19.948;2022-12-18T05:53:53;101631.42;;;-3.61;95.88
41467;BME280;27205;53.690;19.948;2022-12-18T05:58:56;101639.11;;;-3.52;95.84
41467;BME280;27205;53.690;19.948;2022-12-18T06:04:00;101644.08;;;-3.39;95.94
41467;BME280;27205;53.690;19.948;2022-12-18T06:09:04;101648.34;;;-3.26;96.32
41467;BME280;27205;53.690;19.948;2022-12-18T06:14:12;101659.16;;;-3.13;96.62
41467;BME280;27205;53.690;19.948;2022-12-18T06:19:16;101660.96;;;-2.92;96.41
41467;BME280;27205;53.690;19.948;2022-12-18T06:24:19;101674.29;;;-2.78;96.50
41467;BME280;27205;53.690;19.948;2022-12-18T06:29:23;101679.55;;;-2.65;96.41
41467;BME280;27205;53.690;19.948;2022-12-18T06:34:26;101677.73;;;-2.59;96.38
41467;BME280;27205;53.690;19.948;2022-12-18T06:39:30;101680.02;;;-2.49;96.32
41467;BME280;27205;53.690;19.948;2022-12-18T06:44:33;101688.65;;;-2.44;96.11
41467;BME280;27205;53.690;19.948;2022-12-18T06:49:37;101691.56;;;-2.37;96.26
41467;BME280;27205;53.690;19.948;2022-12-18T06:54:40;101703.30;;;-2.39;96.36
41467;BME280;27205;53.690;19.948;2022-12-18T06:59:43;101706.59;;;-2.42;96.47
41467;BME280;27205;53.690;19.948;2022-12-18T07:04:47;101721.18;;;-2.29;95.89
41467;BME280;27205;53.690;19.948;2022-12-18T07:09:54;101726.34;;;-2.49;95.87
41467;BME280;27205;53.690;19.948;2022-12-18T07:14:58;101735.23;;;-2.56;96.22
41467;BME280;27205;53.690;19.948;2022-12-18T07:20:02;101744.77;;;-2.54;96.17
41467;BME280;27205;53.690;19.948;2022-12-18T07:25:07;101747.27;;;-2.48;96.22
41467;BME280;27205;53.690;19.948;2022-12-18T07:30:11;101755.60;;;-2.48;96.12
41467;BME280;27205;53.690;19.948;2022-12-18T07:35:15;101756.64;;;-2.39;95.91
41467;BME280;27205;53.690;19.948;2022-12-18T07:40:26;101764.78;;;-2.30;95.61
41467;BME280;27205;53.690;19.948;2022-12-18T07:45:30;101769.94;;;-2.28;95.24
41467;BME280;27205;53.690;19.948;2022-12-18T07:50:34;101773.70;;;-2.30;95.09
41467;BME280;27205;53.690;19.948;2022-12-18T07:55:37;101772.42;;;-2.37;95.76
41467;BME280;27205;53.690;19.948;2022-12-18T08:06:09;101773.10;;;-2.35;95.49
41467;BME280;27205;53.690;19.948;2022-12-18T08:11:12;101775.58;;;-2.40;95.56
41467;BME280;27205;53.690;19.948;2022-12-18T08:16:17;101773.80;;;-2.47;95.25
41467;BME280;27205;53.690;19.948;2022-12-18T08:21:24;101777.95;;;-2.45;95.55
41467;BME280;27205;53.690;19.948;2022-12-18T08:26:30;101792.38;;;-2.40;95.43
41467;BME280;27205;53.690;19.948;2022-12-18T08:31:34;101795.57;;;-2.44;95.02
41467;BME280;27205;53.690;19.948;2022-12-18T08:36:37;101805.96;;;-2.44;95.12
41467;BME280;27205;53.690;19.948;2022-12-18T08:41:41;101814.91;;;-2.49;94.97
41467;BME280;27205;53.690;19.948;2022-12-18T08:46:45;101823.34;;;-2.48;94.85
41467;BME280;27205;53.690;19.948;2022-12-18T09:03:19;101845.72;;;-2.03;94.77
41467;BME280;27205;53.690;19.948;2022-12-18T09:08:28;101857.84;;;-1.93;94.46
41467;BME280;27205;53.690;19.948;2022-12-18T09:13:32;101862.75;;;-1.99;94.44
41467;BME280;27205;53.690;19.948;2022-12-18T09:18:36;101861.02;;;-2.02;94.55
41467;BME280;27205;53.690;19.948;2022-12-18T09:23:40;101844.81;;;-2.03;94.51
41467;BME280;27205;53.690;19.948;2022-12-18T09:28:44;101856.24;;;-1.92;94.76
41467;BME280;27205;53.690;19.948;2022-12-18T09:33:48;101867.89;;;-1.77;95.00
41467;BME280;27205;53.690;19.948;2022-12-18T09:38:52;101875.05;;;-1.58;94.98
41467;BME280;27205;53.690;19.948;2022-12-18T09:43:57;101869.55;;;-1.47;95.11
41467;BME280;27205;53.690;19.948;2022-12-18T09:49:09;101870.05;;;-1.46;94.56
41467;BME280;27205;53.690;19.948;2022-12-18T09:54:41;101873.70;;;-1.51;94.44
41467;BME280;27205;53.690;19.948;2022-12-18T09:59:51;101880.64;;;-1.61;94.10
41467;BME280;27205;53.690;19.948;2022-12-18T10:05:06;101880.45;;;-1.70;94.04
41467;BME280;27205;53.690;19.948;2022-12-18T10:15:57;101857.31;;;-1.78;94.13
41467;BME280;27205;53.690;19.948;2022-12-18T10:21:18;101857.45;;;-1.76;94.15
41467;BME280;27205;53.690;19.948;2022-12-18T10:26:24;101861.65;;;-1.77;93.35
41467;BME280;27205;53.690;19.948;2022-12-18T10:31:28;101857.92;;;-1.68;93.47
41467;BME280;27205;53.690;19.948;2022-12-18T10:36:31;101858.75;;;-1.50;93.44
41467;BME280;27205;53.690;19.948;2022-12-18T10:41:35;101854.05;;;-1.58;93.35
41467;BME280;27205;53.690;19.948;2022-12-18T10:46:38;101852.50;;;-1.81;93.21
41467;BME280;27205;53.690;19.948;2022-12-18T10:51:42;101850.50;;;-1.89;93.17
41467;BME280;27205;53.690;19.948;2022-12-18T10:56:45;101844.48;;;-1.89;93.28
41467;BME280;27205;53.690;19.948;2022-12-18T11:01:56;101861.07;;;-1.86;93.12
41467;BME280;27205;53.690;19.948;2022-12-18T11:07:06;101863.20;;;-1.87;92.98
41467;BME280;27205;53.690;19.948;2022-12-18T11:12:21;101854.40;;;-1.87;93.03
41467;BME280;27205;53.690;19.948;2022-12-18T11:17:31;101854.71;;;-1.82;93.17
41467;BME280;27205;53.690;19.948;2022-12-18T11:22:37;101856.63;;;-1.80;93.09
41467;BME280;27205;53.690;19.948;2022-12-18T11:27:51;101864.63;;;-1.78;93.13
41467;BME280;27205;53.690;19.948;2022-12-18T11:38:39;101868.38;;;-1.92;92.63
41467;BME280;27205;53.690;19.948;2022-12-18T11:43:54;101873.29;;;-1.82;92.88
41467;BME280;27205;53.690;19.948;2022-12-18T11:49:01;101869.23;;;-1.77;92.87
41467;BME280;27205;53.690;19.948;2022-12-18T11:54:14;101867.42;;;-1.70;92.81
41467;BME280;27205;53.690;19.948;2022-12-18T12:36:12;101923.36;;;-2.01;91.92
41467;BME280;27205;53.690;19.948;2022-12-18T12:41:27;101922.36;;;-2.06;91.89
41467;BME280;27205;53.690;19.948;2022-12-18T12:46:56;101915.29;;;-2.08;91.75
41467;BME280;27205;53.690;19.948;2022-12-18T12:52:14;101907.63;;;-2.09;91.90
41467;BME280;27205;53.690;19.948;2022-12-18T12:57:33;101908.52;;;-2.12;91.67
41467;BME280;27205;53.690;19.948;2022-12-18T13:08:09;101907.16;;;-2.30;91.82
41467;BME280;27205;53.690;19.948;2022-12-18T13:13:14;101916.67;;;-2.30;91.36
41467;BME280;27205;53.690;19.948;2022-12-18T13:18:26;101926.55;;;-2.29;91.60
41467;BME280;27205;53.690;19.948;2022-12-18T13:23:31;101929.89;;;-2.35;91.49
41467;BME280;27205;53.690;19.948;2022-12-18T13:33:49;101944.10;;;-2.57;91.47
41467;BME280;27205;53.690;19.948;2022-12-18T13:39:22;101942.95;;;-2.68;91.61
41467;BME280;27205;53.690;19.948;2022-12-18T13:44:41;101947.35;;;-2.84;91.22
41467;BME280;27205;53.690;19.948;2022-12-18T13:49:46;101946.29;;;-2.98;91.08
41467;BME280;27205;53.690;19.948;2022-12-18T13:55:01;101947.95;;;-3.19;90.58
41467;BME280;27205;53.690;19.948;2022-12-18T14:00:28;101954.91;;;-3.39;90.32
41467;BME280;27205;53.690;19.948;2022-12-18T14:05:34;101963.91;;;-3.65;90.41
41467;BME280;27205;53.690;19.948;2022-12-18T14:10:44;101983.34;;;-3.90;90.35
41467;BME280;27205;53.690;19.948;2022-12-18T14:15:51;101984.70;;;-4.07;89.93
41467;BME280;27205;53.690;19.948;2022-12-18T14:20:57;101986.50;;;-4.09;90.56
41467;BME280;27205;53.690;19.948;2022-12-18T14:26:03;101995.41;;;-4.11;90.39
41467;BME280;27205;53.690;19.948;2022-12-18T14:31:23;102000.92;;;-4.15;90.14
41467;BME280;27205;53.690;19.948;2022-12-18T14:36:28;102002.46;;;-4.21;90.39
41467;BME280;27205;53.690;19.948;2022-12-18T14:41:32;102004.02;;;-4.19;90.25
41467;BME280;27205;53.690;19.948;2022-12-18T14:46:38;102005.98;;;-4.14;90.78
41467;BME280;27205;53.690;19.948;2022-12-18T14:51:47;102009.75;;;-4.10;90.32
41467;BME280;27205;53.690;19.948;2022-12-18T14:57:25;102000.57;;;-4.11;90.43
41467;BME280;27205;53.690;19.948;2022-12-18T15:02:35;102006.19;;;-4.15;90.56
41467;BME280;27205;53.690;19.948;2022-12-18T15:07:45;102007.38;;;-4.12;90.24
41467;BME280;27205;53.690;19.948;2022-12-18T15:13:05;102008.42;;;-4.11;90.41
41467;BME280;27205;53.690;19.948;2022-12-18T15:23:26;102016.99;;;-4.04;90.71
41467;BME280;27205;53.690;19.948;2022-12-18T15:28:35;102018.84;;;-3.99;90.67
41467;BME280;27205;53.690;19.948;2022-12-18T15:39:12;102018.77;;;-3.95;90.41
41467;BME280;27205;53.690;19.948;2022-12-18T15:44:22;102018.80;;;-3.88;90.74
41467;BME280;27205;53.690;19.948;2022-12-18T15:49:26;102019.02;;;-3.86;90.68
41467;BME280;27205;53.690;19.948;2022-12-18T15:54:29;102010.30;;;-3.86;90.71
41467;BME280;27205;53.690;19.948;2022-12-18T15:59:53;102008.33;;;-3.87;90.74
41467;BME280;27205;53.690;19.948;2022-12-18T16:04:59;102017.80;;;-3.83;90.83
41467;BME280;27205;53.690;19.948;2022-12-18T16:10:03;102014.15;;;-3.81;90.63
41467;BME280;27205;53.690;19.948;2022-12-18T16:15:11;102008.89;;;-3.77;90.76
41467;BME280;27205;53.690;19.948;2022-12-18T16:20:24;102012.34;;;-3.80;90.44
41467;BME280;27205;53.690;19.948;2022-12-18T16:25:28;102018.64;;;-3.80;90.70
41467;BME280;27205;53.690;19.948;2022-12-18T16:30:32;102018.59;;;-3.79;90.46
41467;BME280;27205;53.690;19.948;2022-12-18T16:35:42;102016.17;;;-3.76;90.93
41467;BME280;27205;53.690;19.948;2022-12-18T16:40:46;102026.35;;;-3.71;90.92
41467;BME280;27205;53.690;19.948;2022-12-18T16:46:09;102015.95;;;-3.64;90.94
41467;BME280;27205;53.690;19.948;2022-12-18T16:51:12;102012.77;;;-3.67;90.88
41467;BME280;27205;53.690;19.948;2022-12-18T16:56:16;102023.15;;;-3.63;91.17
41467;BME280;27205;53.690;19.948;2022-12-18T17:01:20;102021.63;;;-3.59;91.01
41467;BME280;27205;53.690;19.948;2022-12-18T17:06:24;102025.17;;;-3.60;90.87
41467;BME280;27205;53.690;19.948;2022-12-18T17:11:30;102036.62;;;-3.65;91.07
41467;BME280;27205;53.690;19.948;2022-12-18T17:16:34;102053.04;;;-3.68;90.66
41467;BME280;27205;53.690;19.948;2022-12-18T17:21:38;102065.42;;;-3.74;90.71
41467;BME280;27205;53.690;19.948;2022-12-18T17:26:43;102054.92;;;-3.71;90.90
41467;BME280;27205;53.690;19.948;2022-12-18T17:31:47;102047.95;;;-3.70;90.85
41467;BME280;27205;53.690;19.948;2022-12-18T17:36:51;102049.00;;;-3.73;90.82
41467;BME280;27205;53.690;19.948;2022-12-18T17:41:54;102048.91;;;-3.77;90.94
41467;BME280;27205;53.690;19.948;2022-12-18T17:46:58;102031.22;;;-3.84;90.65
41467;BME280;27205;53.690;19.948;2022-12-18T17:52:02;102021.17;;;-3.80;90.77
41467;BME280;27205;53.690;19.948;2022-12-18T17:57:06;102014.94;;;-3.74;91.11
41467;BME280;27205;53.690;19.948;2022-12-18T18:02:10;102008.33;;;-3.70;91.32
41467;BME280;27205;53.690;19.948;2022-12-18T18:07:14;102009.58;;;-3.68;90.82
41467;BME280;27205;53.690;19.948;2022-12-18T18:12:18;102019.83;;;-3.61;91.15
41467;BME280;27205;53.690;19.948;2022-12-18T18:17:41;102009.65;;;-3.58;91.31
41467;BME280;27205;53.690;19.948;2022-12-18T18:22:44;101999.96;;;-3.54;90.88
41467;BME280;27205;53.690;19.948;2022-12-18T18:27:48;101996.11;;;-3.60;90.69
41467;BME280;27205;53.690;19.948;2022-12-18T18:32:52;102010.48;;;-3.72;90.88
41467;BME280;27205;53.690;19.948;2022-12-18T18:37:56;102011.42;;;-3.83;90.83
41467;BME280;27205;53.690;19.948;2022-12-18T18:43:00;102017.40;;;-3.95;90.25
41467;BME280;27205;53.690;19.948;2022-12-18T18:48:06;102026.77;;;-4.11;89.92
41467;BME280;27205;53.690;19.948;2022-12-18T18:53:09;102024.68;;;-4.32;90.33
41467;BME280;27205;53.690;19.948;2022-12-18T18:58:13;102028.02;;;-4.52;89.96
41467;BME280;27205;53.690;19.948;2022-12-18T19:03:17;102023.86;;;-4.68;89.76
41467;BME280;27205;53.690;19.948;2022-12-18T19:08:29;102011.83;;;-4.85;89.69
41467;BME280;27205;53.690;19.948;2022-12-18T19:13:33;102016.51;;;-5.03;89.48
41467;BME280;27205;53.690;19.948;2022-12-18T19:18:38;102017.73;;;-5.24;88.52
41467;BME280;27205;53.690;19.948;2022-12-18T19:23:43;102014.90;;;-5.40;89.35
41467;BME280;27205;53.690;19.948;2022-12-18T19:28:46;102015.51;;;-5.52;88.83
41467;BME280;27205;53.690;19.948;2022-12-18T19:33:50;102024.81;;;-5.64;89.03
41467;BME280;27205;53.690;19.948;2022-12-18T19:38:56;102032.06;;;-5.74;89.46
41467;BME280;27205;53.690;19.948;2022-12-18T19:43:59;102036.89;;;-5.87;89.35
41467;BME280;27205;53.690;19.948;2022-12-18T19:49:10;102042.94;;;-5.98;89.48
41467;BME280;27205;53.690;19.948;2022-12-18T19:54:24;102045.02;;;-6.04;89.60
41467;BME280;27205;53.690;19.948;2022-12-18T19:59:29;102046.17;;;-6.14;89.13
41467;BME280;27205;53.690;19.948;2022-12-18T20:04:32;102046.48;;;-6.28;88.78
41467;BME280;27205;53.690;19.948;2022-12-18T20:09:37;102044.08;;;-6.35;89.18
41467;BME280;27205;53.690;19.948;2022-12-18T20:14:40;102040.30;;;-6.38;89.15
41467;BME280;27205;53.690;19.948;2022-12-18T20:19:43;102034.18;;;-6.44;88.95
41467;BME280;27205;53.690;19.948;2022-12-18T20:24:47;102031.08;;;-6.57;88.97
41467;BME280;27205;53.690;19.948;2022-12-18T20:29:52;102030.73;;;-6.68;88.70
41467;BME280;27205;53.690;19.948;2022-12-18T20:34:57;102022.59;;;-6.75;88.64
41467;BME280;27205;53.690;19.948;2022-12-18T20:40:05;102014.14;;;-6.83;88.62
41467;BME280;27205;53.690;19.948;2022-12-18T20:45:12;102017.55;;;-6.91;88.76
41467;BME280;27205;53.690;19.948;2022-12-18T20:50:18;102022.90;;;-7.00;88.37
41467;BME280;27205;53.690;19.948;2022-12-18T20:55:22;102030.40;;;-7.07;88.48
41467;BME280;27205;53.690;19.948;2022-12-18T21:00:25;102038.20;;;-7.13;88.18
41467;BME280;27205;53.690;19.948;2022-12-18T21:06:02;102039.48;;;-7.18;88.35
41467;BME280;27205;53.690;19.948;2022-12-18T21:16:41;102009.94;;;-7.32;88.31
41467;BME280;27205;53.690;19.948;2022-12-18T21:21:48;101995.94;;;-7.38;88.34
41467;BME280;27205;53.690;19.948;2022-12-18T21:26:52;101985.27;;;-7.40;88.18
41467;BME280;27205;53.690;19.948;2022-12-18T21:31:56;101987.93;;;-7.49;88.39
41467;BME280;27205;53.690;19.948;2022-12-18T21:37:00;101988.50;;;-7.55;88.07
41467;BME280;27205;53.690;19.948;2022-12-18T21:42:04;101980.98;;;-7.59;88.23
41467;BME280;27205;53.690;19.948;2022-12-18T21:47:26;101984.92;;;-7.61;88.16
41467;BME280;27205;53.690;19.948;2022-12-18T21:52:30;101995.31;;;-7.66;88.13
41467;BME280;27205;53.690;19.948;2022-12-18T21:57:36;102012.80;;;-7.70;88.20
41467;BME280;27205;53.690;19.948;2022-12-18T22:02:39;102021.55;;;-7.74;87.98
41467;BME280;27205;53.690;19.948;2022-12-18T22:07:43;102017.73;;;-7.81;87.89
41467;BME280;27205;53.690;19.948;2022-12-18T22:12:46;102010.51;;;-7.86;87.98
41467;BME280;27205;53.690;19.948;2022-12-18T22:17:51;102014.72;;;-7.91;87.94
41467;BME280;27205;53.690;19.948;2022-12-18T22:23:02;102017.11;;;-7.94;88.17
41467;BME280;27205;53.690;19.948;2022-12-18T22:28:08;102013.59;;;-7.88;88.34
41467;BME280;27205;53.690;19.948;2022-12-18T22:33:30;102002.30;;;-7.85;88.20
41467;BME280;27205;53.690;19.948;2022-12-18T22:38:34;101996.34;;;-7.81;88.17
41467;BME280;27205;53.690;19.948;2022-12-18T22:43:37;101996.65;;;-7.78;88.02
41467;BME280;27205;53.690;19.948;2022-12-18T22:48:41;102007.41;;;-7.76;88.11
41467;BME280;27205;53.690;19.948;2022-12-18T22:53:45;102000.93;;;-7.76;88.09
41467;BME280;27205;53.690;19.948;2022-12-18T22:58:50;102007.29;;;-7.75;88.00
41467;BME280;27205;53.690;19.948;2022-12-18T23:03:54;102009.02;;;-7.81;88.01
41467;BME280;27205;53.690;19.948;2022-12-18T23:08:58;102012.99;;;-7.85;87.77
41467;BME280;27205;53.690;19.948;2022-12-18T23:14:02;102011.45;;;-7.90;87.72
41467;BME280;27205;53.690;19.948;2022-12-18T23:19:05;102012.40;;;-7.90;88.13
41467;BME280;27205;53.690;19.948;2022-12-18T23:24:09;102009.82;;;-7.86;87.88
41467;BME280;27205;53.690;19.948;2022-12-18T23:29:12;102011.16;;;-7.81;87.84
41467;BME280;27205;53.690;19.948;2022-12-18T23:34:16;102012.23;;;-7.74;87.90
41467;BME280;27205;53.690;19.948;2022-12-18T23:39:20;102005.84;;;-7.65;87.88
41467;BME280;27205;53.690;19.948;2022-12-18T23:44:32;102008.28;;;-7.54;88.08
41467;BME280;27205;53.690;19.948;2022-12-18T23:49:35;101999.66;;;-7.42;88.25
41467;BME280;27205;53.690;19.948;2022-12-18T23:54:39;102000.40;;;-7.27;88.55
41467;BME280;27205;53.690;19.948;2022-12-18T23:59:44;101994.15;;;-7.07;88.45
